Time;durP1;ratioP1;P1;durP2;ratioP2;P2;SDS_P1;SDS_P2;PMS_P1;PMS_P2;Temp;Humidity;BMP_temperature;BMP_pressure;BME280_temperature;BME280_humidity;BME280_pressure;Samples;Min_cycle;Max_cycle;Signal;HPM_P1;HPM_P2
2021/10/24 00:00:02;;;;;;;25.17;10.73;;;10.60;99.90;;;;;;5085672;28;20200;-64
2021/10/24 00:02:28;;;;;;;17.67;10.50;;;10.60;99.90;;;;;;5085879;28;20194;-64
2021/10/24 00:04:53;;;;;;;14.77;10.23;;;10.50;99.90;;;;;;5085722;28;20192;-65
2021/10/24 00:07:19;;;;;;;16.40;10.17;;;10.20;99.90;;;;;;5085593;28;20180;-65
2021/10/24 00:09:45;;;;;;;15.40;9.97;;;10.00;99.90;;;;;;5085689;28;20238;-65
2021/10/24 00:12:10;;;;;;;11.73;9.07;;;9.90;99.90;;;;;;5084842;28;20273;-64
2021/10/24 00:14:36;;;;;;;12.53;9.03;;;9.80;99.90;;;;;;5084497;28;20164;-65
2021/10/24 00:17:02;;;;;;;11.53;9.23;;;9.70;99.90;;;;;;5085563;28;20172;-65
2021/10/24 00:19:28;;;;;;;11.37;9.10;;;9.70;99.90;;;;;;5085628;28;20164;-65
2021/10/24 00:21:53;;;;;;;13.60;9.17;;;9.70;99.90;;;;;;5085394;28;20199;-64
2021/10/24 00:24:19;;;;;;;16.57;9.00;;;9.70;99.90;;;;;;5085379;28;20195;-65
2021/10/24 00:26:45;;;;;;;12.83;9.00;;;9.80;99.90;;;;;;5085358;28;20160;-65
2021/10/24 00:29:10;;;;;;;14.43;9.43;;;9.80;99.90;;;;;;5085381;28;20196;-65
2021/10/24 00:31:36;;;;;;;17.67;8.80;;;9.80;99.90;;;;;;5085360;28;20222;-65
2021/10/24 00:34:03;;;;;;;15.33;9.80;;;9.80;99.90;;;;;;5085604;28;20179;-65
2021/10/24 00:36:29;;;;;;;15.77;9.80;;;9.90;99.90;;;;;;5085379;28;20160;-65
2021/10/24 00:38:54;;;;;;;12.77;9.13;;;10.00;99.90;;;;;;5085970;28;20167;-65
2021/10/24 00:41:20;;;;;;;14.07;9.70;;;9.90;99.90;;;;;;5088872;28;20262;-65
2021/10/24 00:43:47;;;;;;;17.40;10.73;;;9.90;99.90;;;;;;5088819;28;20253;-64
2021/10/24 00:46:12;;;;;;;12.43;10.00;;;9.90;99.90;;;;;;5089107;28;20168;-65
2021/10/24 00:48:38;;;;;;;16.70;11.03;;;10.10;99.90;;;;;;5089022;28;20243;-64
2021/10/24 00:51:04;;;;;;;11.83;9.60;;;10.10;99.90;;;;;;5088786;28;20176;-64
2021/10/24 00:53:29;;;;;;;18.57;9.80;;;10.20;99.90;;;;;;5088972;28;20175;-64
2021/10/24 00:55:57;;;;;;;18.73;10.23;;;10.30;99.90;;;;;;5088876;28;20167;-64
2021/10/24 00:58:23;;;;;;;23.90;9.80;;;10.40;99.90;;;;;;5088278;28;20191;-65
2021/10/24 01:00:48;;;;;;;13.63;9.50;;;10.60;99.90;;;;;;5088599;28;20179;-65
2021/10/24 01:03:14;;;;;;;14.60;9.73;;;10.40;99.90;;;;;;5088722;28;20159;-65
2021/10/24 01:05:41;;;;;;;19.77;9.50;;;10.20;99.90;;;;;;5088766;28;20156;-64
2021/10/24 01:08:09;;;;;;;13.10;9.43;;;9.90;99.90;;;;;;5088698;28;20160;-64
2021/10/24 01:10:36;;;;;;;18.47;10.10;;;10.00;99.90;;;;;;5088250;28;20212;-65
2021/10/24 01:13:02;;;;;;;12.80;8.50;;;10.30;99.90;;;;;;5088093;28;20202;-65
2021/10/24 01:15:27;;;;;;;16.17;9.33;;;10.10;99.90;;;;;;5088773;28;20160;-65
2021/10/24 01:17:53;;;;;;;14.03;9.17;;;10.00;99.90;;;;;;5088420;28;20163;-65
2021/10/24 01:20:25;;;;;;;11.93;9.13;;;10.10;99.90;;;;;;5088480;28;20259;-64
2021/10/24 01:22:52;;;;;;;15.37;8.73;;;10.20;99.90;;;;;;5088385;28;20194;-65
2021/10/24 01:25:18;;;;;;;12.43;8.50;;;10.10;99.90;;;;;;5088188;28;20194;-64
2021/10/24 01:27:46;;;;;;;13.77;9.53;;;10.00;99.90;;;;;;5088060;28;20186;-64
2021/10/24 01:30:12;;;;;;;13.33;9.07;;;10.20;99.90;;;;;;5088227;28;20175;-65
2021/10/24 01:32:38;;;;;;;10.90;9.13;;;10.20;99.90;;;;;;5088152;28;20165;-65
2021/10/24 01:35:05;;;;;;;15.27;9.03;;;10.00;99.90;;;;;;5088118;28;20171;-65
2021/10/24 01:37:33;;;;;;;13.90;8.40;;;9.90;99.90;;;;;;5087894;28;20179;-65
2021/10/24 01:40:01;;;;;;;15.70;8.20;;;9.70;99.90;;;;;;5088150;28;20202;-64
2021/10/24 01:42:27;;;;;;;12.13;8.47;;;9.90;99.90;;;;;;5087438;28;20179;-65
2021/10/24 01:44:53;;;;;;;13.90;8.47;;;10.10;99.90;;;;;;5088089;28;20180;-64
2021/10/24 01:47:18;;;;;;;13.23;8.83;;;10.10;99.90;;;;;;5087561;28;20168;-65
2021/10/24 01:49:44;;;;;;;15.40;8.73;;;10.10;99.90;;;;;;5087917;28;20617;-65
2021/10/24 01:52:10;;;;;;;12.87;8.63;;;10.10;99.90;;;;;;5087170;28;20194;-64
2021/10/24 01:54:36;;;;;;;10.70;8.50;;;10.20;99.90;;;;;;5087968;28;20168;-64
2021/10/24 01:57:02;;;;;;;17.07;8.53;;;10.10;99.90;;;;;;5087384;28;20176;-64
2021/10/24 01:59:27;;;;;;;15.00;9.40;;;9.90;99.90;;;;;;5086382;28;20175;-65
2021/10/24 02:01:53;;;;;;;13.60;8.90;;;9.90;99.90;;;;;;5087500;28;20176;-65
2021/10/24 02:04:18;;;;;;;11.60;9.00;;;9.80;99.90;;;;;;5087690;28;20192;-65
2021/10/24 02:06:44;;;;;;;10.37;8.73;;;10.00;99.90;;;;;;5087481;28;20152;-64
2021/10/24 02:09:10;;;;;;;9.30;8.27;;;10.00;99.90;;;;;;5087579;28;20243;-64
2021/10/24 02:11:35;;;;;;;13.93;9.10;;;10.00;99.90;;;;;;5086990;28;20215;-64
2021/10/24 02:14:01;;;;;;;8.63;7.77;;;10.00;99.90;;;;;;5087183;28;20267;-65
2021/10/24 02:16:26;;;;;;;12.07;8.80;;;9.90;99.90;;;;;;5087305;28;20172;-64
2021/10/24 02:18:52;;;;;;;12.90;8.27;;;9.90;99.90;;;;;;5087331;28;20199;-64
2021/10/24 02:21:18;;;;;;;14.63;8.70;;;9.80;99.90;;;;;;5087156;28;20189;-64
2021/10/24 02:23:44;;;;;;;14.67;8.97;;;9.90;99.90;;;;;;5087216;28;20209;-64
2021/10/24 02:26:10;;;;;;;14.23;8.17;;;9.90;99.90;;;;;;5087071;28;20166;-64
2021/10/24 02:28:36;;;;;;;11.80;8.50;;;9.80;99.90;;;;;;5085211;28;20179;-65
2021/10/24 02:31:01;;;;;;;11.03;8.83;;;9.90;99.90;;;;;;5086894;28;20199;-64
2021/10/24 02:33:27;;;;;;;9.10;8.20;;;9.80;99.90;;;;;;5087178;28;20739;-64
2021/10/24 02:35:52;;;;;;;13.10;8.77;;;9.90;99.90;;;;;;5085537;28;20618;-64
2021/10/24 02:38:20;;;;;;;12.20;9.17;;;10.10;99.90;;;;;;5086990;28;20152;-64
2021/10/24 02:40:45;;;;;;;13.77;8.63;;;10.10;99.90;;;;;;5085763;28;20180;-64
2021/10/24 02:43:11;;;;;;;19.57;8.80;;;10.10;99.90;;;;;;5086586;28;20191;-64
2021/10/24 02:45:37;;;;;;;10.20;8.73;;;10.00;99.90;;;;;;5086932;28;20648;-64
2021/10/24 02:48:04;;;;;;;15.07;8.60;;;9.90;99.90;;;;;;5085495;28;20186;-64
2021/10/24 02:50:29;;;;;;;12.57;8.80;;;9.70;99.90;;;;;;5086726;28;20168;-64
2021/10/24 02:52:55;;;;;;;9.00;8.07;;;9.80;99.90;;;;;;5086621;28;20186;-64
2021/10/24 02:55:21;;;;;;;16.13;8.77;;;9.70;99.90;;;;;;5086675;28;20168;-64
2021/10/24 02:57:47;;;;;;;13.77;8.93;;;9.70;99.90;;;;;;5086278;28;20176;-65
2021/10/24 03:00:13;;;;;;;13.03;8.47;;;9.70;99.90;;;;;;5086592;28;20179;-65
2021/10/24 03:02:39;;;;;;;11.83;8.40;;;9.70;99.90;;;;;;5085738;28;20168;-64
2021/10/24 03:05:07;;;;;;;12.60;8.17;;;9.90;99.90;;;;;;5086683;28;20197;-64
2021/10/24 03:07:33;;;;;;;12.03;8.30;;;9.90;99.90;;;;;;5086500;28;20167;-64
2021/10/24 03:09:59;;;;;;;9.23;8.20;;;9.80;99.90;;;;;;5086549;28;20247;-64
2021/10/24 03:12:24;;;;;;;12.77;8.70;;;9.80;99.90;;;;;;5085486;28;20216;-64
2021/10/24 03:14:50;;;;;;;12.30;8.50;;;9.90;99.90;;;;;;5086443;28;20636;-64
2021/10/24 03:17:16;;;;;;;10.43;8.60;;;9.90;99.90;;;;;;5086362;28;20167;-65
2021/10/24 03:19:42;;;;;;;9.77;8.40;;;9.80;99.90;;;;;;5086516;28;20231;-65
2021/10/24 03:22:08;;;;;;;9.17;8.17;;;9.70;99.90;;;;;;5086023;28;20231;-65
2021/10/24 03:24:34;;;;;;;8.87;7.67;;;9.70;99.90;;;;;;5086335;28;20196;-64
2021/10/24 03:27:00;;;;;;;14.17;8.37;;;9.60;99.90;;;;;;5086232;28;20156;-64
2021/10/24 03:29:26;;;;;;;9.43;8.40;;;9.60;99.90;;;;;;5086112;28;20297;-64
2021/10/24 03:31:52;;;;;;;10.17;8.17;;;9.70;99.90;;;;;;5085997;28;20194;-64
2021/10/24 03:34:19;;;;;;;9.40;7.40;;;9.60;99.90;;;;;;5086421;28;20164;-64
2021/10/24 03:36:47;;;;;;;11.77;8.07;;;9.60;99.90;;;;;;5086268;28;20168;-64
2021/10/24 03:39:13;;;;;;;10.23;7.83;;;9.40;99.90;;;;;;5084963;28;20226;-64
2021/10/24 03:41:39;;;;;;;10.70;8.53;;;9.40;99.90;;;;;;5085875;28;20168;-64
2021/10/24 03:44:04;;;;;;;10.83;8.40;;;9.60;99.90;;;;;;5085730;28;20211;-64
2021/10/24 03:46:31;;;;;;;9.37;8.23;;;9.70;99.90;;;;;;5086071;28;20160;-65
2021/10/24 03:48:58;;;;;;;15.23;8.33;;;9.50;99.90;;;;;;5086184;28;20152;-64
2021/10/24 03:51:24;;;;;;;14.30;8.40;;;9.60;99.90;;;;;;5085903;28;20171;-64
2021/10/24 03:53:50;;;;;;;12.03;7.67;;;9.60;99.90;;;;;;5084796;28;20164;-65
2021/10/24 03:56:15;;;;;;;10.23;7.67;;;9.50;99.90;;;;;;5085907;28;20171;-64
2021/10/24 03:58:43;;;;;;;10.23;7.93;;;9.50;99.90;;;;;;5085489;28;20203;-64
2021/10/24 04:01:10;;;;;;;10.77;8.20;;;9.60;99.90;;;;;;5085725;28;20187;-64
2021/10/24 04:03:35;;;;;;;11.37;8.00;;;9.40;99.90;;;;;;5086104;28;20279;-64
2021/10/24 04:06:03;;;;;;;11.30;8.33;;;9.50;99.90;;;;;;5085817;28;20206;-64
2021/10/24 04:08:32;;;;;;;10.63;7.17;;;9.40;99.90;;;;;;5085828;28;20557;-64
2021/10/24 04:11:00;;;;;;;9.57;7.57;;;9.30;99.90;;;;;;5085281;28;20212;-64
2021/10/24 04:13:26;;;;;;;10.23;8.33;;;9.20;99.90;;;;;;5085499;28;20575;-64
2021/10/24 04:15:52;;;;;;;13.47;8.07;;;9.30;99.90;;;;;;5089413;28;20180;-65
2021/10/24 04:18:18;;;;;;;10.53;8.23;;;9.30;99.90;;;;;;5089499;28;20160;-64
2021/10/24 04:20:43;;;;;;;9.70;8.20;;;9.40;99.90;;;;;;5089430;28;20198;-64
2021/10/24 04:23:09;;;;;;;8.30;7.27;;;9.30;99.90;;;;;;5089336;28;20170;-64
2021/10/24 04:25:35;;;;;;;14.03;7.27;;;9.50;99.90;;;;;;5089496;28;20188;-64
2021/10/24 04:28:00;;;;;;;11.03;8.20;;;9.30;99.90;;;;;;5089211;28;20168;-64
2021/10/24 04:30:26;;;;;;;10.33;8.03;;;9.20;99.90;;;;;;5089290;28;20160;-65
2021/10/24 04:32:52;;;;;;;12.00;7.87;;;9.20;99.90;;;;;;5089131;28;20566;-64
2021/10/24 04:35:17;;;;;;;9.07;8.03;;;9.30;99.90;;;;;;5089178;28;20625;-64
2021/10/24 04:37:44;;;;;;;14.67;9.27;;;9.30;99.90;;;;;;5089092;28;20157;-64
2021/10/24 04:40:10;;;;;;;12.97;8.63;;;9.30;99.90;;;;;;5089336;28;20175;-64
2021/10/24 04:42:36;;;;;;;10.07;8.83;;;9.40;99.90;;;;;;5088636;28;20175;-64
2021/10/24 04:45:06;;;;;;;13.27;8.33;;;9.40;99.90;;;;;;5089155;28;20711;-64
2021/10/24 04:47:33;;;;;;;9.80;8.03;;;9.40;99.90;;;;;;5088924;28;20637;-64
2021/10/24 04:49:59;;;;;;;11.63;7.60;;;9.20;99.90;;;;;;5089193;28;20161;-64
2021/10/24 04:52:24;;;;;;;13.47;8.07;;;9.20;99.90;;;;;;5088744;28;20200;-64
2021/10/24 04:54:50;;;;;;;11.90;7.57;;;9.20;99.90;;;;;;5089071;28;20191;-64
2021/10/24 04:57:15;;;;;;;10.30;8.03;;;9.10;99.90;;;;;;5088457;28;20190;-64
2021/10/24 04:59:42;;;;;;;9.27;7.30;;;9.10;99.90;;;;;;5088901;28;20149;-64
2021/10/24 05:02:07;;;;;;;8.33;7.53;;;9.10;99.90;;;;;;5088586;28;20176;-64
2021/10/24 05:04:33;;;;;;;10.03;7.60;;;9.10;99.90;;;;;;5088728;28;20542;-64
2021/10/24 05:06:58;;;;;;;16.30;8.53;;;9.10;99.90;;;;;;5088552;28;20171;-64
2021/10/24 05:09:24;;;;;;;8.43;7.50;;;9.20;99.90;;;;;;5088721;28;20242;-64
2021/10/24 05:11:50;;;;;;;8.27;7.47;;;9.20;99.90;;;;;;5088014;28;20208;-65
2021/10/24 05:14:15;;;;;;;10.23;7.87;;;9.20;99.90;;;;;;5088255;28;20179;-64
2021/10/24 05:16:41;;;;;;;9.80;6.70;;;9.20;99.90;;;;;;5088486;28;20170;-64
2021/10/24 05:19:07;;;;;;;10.83;7.23;;;9.10;99.90;;;;;;5088495;28;20160;-64
2021/10/24 05:21:33;;;;;;;9.83;7.80;;;9.10;99.90;;;;;;5088287;28;20178;-64
2021/10/24 05:23:59;;;;;;;8.73;7.97;;;9.10;99.90;;;;;;5088375;28;20214;-64
2021/10/24 05:26:25;;;;;;;9.03;8.13;;;9.10;99.90;;;;;;5087503;28;20152;-64
2021/10/24 05:28:50;;;;;;;7.80;7.10;;;9.10;99.90;;;;;;5087806;28;20231;-64
2021/10/24 05:31:16;;;;;;;13.27;7.23;;;9.00;99.90;;;;;;5088190;28;20202;-64
2021/10/24 05:33:42;;;;;;;9.63;6.87;;;9.00;99.90;;;;;;5088127;28;20164;-64
2021/10/24 05:36:08;;;;;;;10.60;6.70;;;8.80;99.90;;;;;;5088198;28;20214;-64
2021/10/24 05:38:34;;;;;;;7.90;6.70;;;8.80;99.90;;;;;;5088186;28;20176;-64
2021/10/24 05:40:59;;;;;;;8.27;6.60;;;8.90;99.90;;;;;;5087946;28;20172;-64
2021/10/24 05:43:25;;;;;;;9.50;6.53;;;8.90;99.90;;;;;;5087632;28;20176;-64
2021/10/24 05:45:51;;;;;;;12.20;7.27;;;8.90;99.90;;;;;;5088240;28;20160;-64
2021/10/24 05:48:19;;;;;;;7.63;6.47;;;8.90;99.90;;;;;;5088002;28;20164;-64
2021/10/24 05:50:45;;;;;;;7.77;6.40;;;8.90;99.90;;;;;;5087824;28;20172;-64
2021/10/24 05:53:11;;;;;;;7.43;6.63;;;8.70;99.90;;;;;;5087811;28;20168;-65
2021/10/24 05:55:36;;;;;;;11.97;7.97;;;8.70;99.90;;;;;;5088015;28;20225;-64
2021/10/24 05:58:03;;;;;;;8.07;7.27;;;8.90;99.90;;;;;;5087252;28;20180;-64
2021/10/24 06:00:29;;;;;;;10.20;7.03;;;8.90;99.90;;;;;;5087587;28;20175;-64
2021/10/24 06:02:55;;;;;;;9.67;6.57;;;8.80;99.90;;;;;;5087629;28;20168;-64
2021/10/24 06:05:21;;;;;;;11.50;6.10;;;8.80;99.90;;;;;;5087447;28;20188;-64
2021/10/24 06:07:48;;;;;;;9.10;6.73;;;8.70;99.90;;;;;;5087727;28;20250;-64
2021/10/24 06:10:16;;;;;;;7.03;6.33;;;8.90;99.90;;;;;;5087654;28;20227;-64
2021/10/24 06:12:45;;;;;;;8.97;6.53;;;8.70;99.90;;;;;;5086817;28;20215;-64
2021/10/24 06:15:15;;;;;;;10.57;5.83;;;8.80;99.90;;;;;;5087511;28;20213;-64
2021/10/24 06:17:42;;;;;;;9.20;6.93;;;8.80;99.90;;;;;;5086166;28;20192;-64
2021/10/24 06:20:09;;;;;;;7.97;6.23;;;8.70;99.90;;;;;;5087436;28;20184;-64
2021/10/24 06:22:36;;;;;;;10.33;6.53;;;8.60;99.90;;;;;;5086938;28;20633;-64
2021/10/24 06:25:02;;;;;;;8.90;6.90;;;8.60;99.90;;;;;;5087299;28;20271;-64
2021/10/24 06:27:28;;;;;;;12.35;7.18;;;8.60;99.90;;;;;;5084271;28;20418;-64
2021/10/24 06:29:54;;;;;;;10.87;6.30;;;8.60;99.90;;;;;;5087191;28;20144;-64
2021/10/24 06:32:19;;;;;;;15.43;7.00;;;8.60;99.90;;;;;;5086846;28;20172;-64
2021/10/24 06:34:45;;;;;;;10.35;7.53;;;8.70;99.90;;;;;;5084788;28;20410;-64
2021/10/24 06:37:11;;;;;;;9.17;8.27;;;8.70;99.90;;;;;;5085635;28;20164;-64
2021/10/24 06:39:36;;;;;;;9.10;7.63;;;8.80;99.90;;;;;;5086939;28;20218;-64
2021/10/24 06:42:02;;;;;;;9.53;6.20;;;8.70;99.90;;;;;;5085040;28;20176;-64
2021/10/24 06:44:28;;;;;;;9.37;6.70;;;8.80;99.90;;;;;;5085512;28;20426;-64
2021/10/24 06:46:54;;;;;;;6.83;5.47;;;8.90;99.90;;;;;;5086443;28;20398;-64
2021/10/24 06:49:19;;;;;;;8.43;5.40;;;8.90;99.90;;;;;;5086694;28;20159;-64
2021/10/24 06:51:45;;;;;;;11.00;6.40;;;8.80;99.90;;;;;;5086025;28;20398;-64
2021/10/24 06:54:11;;;;;;;8.63;6.43;;;8.90;99.90;;;;;;5086632;28;20156;-64
2021/10/24 06:56:36;;;;;;;11.53;6.53;;;8.80;99.90;;;;;;5086590;28;20156;-64
2021/10/24 06:59:02;;;;;;;13.03;5.97;;;8.80;99.90;;;;;;5086162;28;20554;-64
2021/10/24 07:01:28;;;;;;;9.83;6.10;;;8.70;99.90;;;;;;5086278;28;20180;-64
2021/10/24 07:03:54;;;;;;;9.30;6.47;;;8.70;99.90;;;;;;5086224;28;20196;-64
2021/10/24 07:06:23;;;;;;;9.43;6.10;;;8.60;99.90;;;;;;5086355;28;20588;-64
2021/10/24 07:08:48;;;;;;;8.90;7.03;;;8.80;99.90;;;;;;5086220;28;20160;-64
2021/10/24 07:11:14;;;;;;;16.20;8.00;;;9.00;99.90;;;;;;5085907;28;20219;-64
2021/10/24 07:13:40;;;;;;;9.60;6.93;;;8.90;99.90;;;;;;5085765;28;20214;-64
2021/10/24 07:16:05;;;;;;;8.93;6.73;;;8.80;99.90;;;;;;5086051;28;20172;-64
2021/10/24 07:18:31;;;;;;;13.33;6.93;;;8.80;99.90;;;;;;5086239;28;20175;-64
2021/10/24 07:20:57;;;;;;;9.97;6.90;;;8.90;99.90;;;;;;5086098;28;20175;-64
2021/10/24 07:23:22;;;;;;;6.47;5.73;;;9.00;99.90;;;;;;5085962;28;20172;-64
2021/10/24 07:25:48;;;;;;;6.97;5.47;;;8.90;99.90;;;;;;5086214;28;20196;-64
2021/10/24 07:28:14;;;;;;;6.47;5.00;;;8.90;99.90;;;;;;5085452;28;20168;-64
2021/10/24 07:30:39;;;;;;;7.68;5.85;;;8.80;99.90;;;;;;5085355;28;20459;-64
2021/10/24 07:33:05;;;;;;;10.10;6.20;;;8.80;99.90;;;;;;5085739;28;20160;-64
2021/10/24 07:35:32;;;;;;;10.60;6.20;;;8.90;99.90;;;;;;5084591;28;20164;-64
2021/10/24 07:37:58;;;;;;;7.30;5.57;;;8.90;99.90;;;;;;5085793;28;20251;-64
2021/10/24 07:40:24;;;;;;;5.97;5.20;;;8.90;99.90;;;;;;5085973;28;20164;-64
2021/10/24 07:42:50;;;;;;;11.03;5.80;;;9.00;99.90;;;;;;5085076;28;20176;-64
2021/10/24 07:45:16;;;;;;;7.93;5.80;;;9.00;99.90;;;;;;5085549;28;20196;-64
2021/10/24 07:47:42;;;;;;;6.73;4.90;;;9.00;99.90;;;;;;5085731;28;20152;-64
2021/10/24 07:50:10;;;;;;;5.87;4.90;;;9.00;99.90;;;;;;5088344;28;20243;-64
2021/10/24 07:52:38;;;;;;;7.30;5.30;;;9.10;99.90;;;;;;5089581;28;20171;-64
2021/10/24 07:55:05;;;;;;;8.57;5.60;;;9.10;99.90;;;;;;5089555;28;20168;-64
2021/10/24 07:57:30;;;;;;;11.50;5.50;;;9.10;99.90;;;;;;5089422;28;20160;-64
2021/10/24 07:59:56;;;;;;;10.20;5.30;;;9.10;99.90;;;;;;5089918;28;20163;-64
2021/10/24 08:02:21;;;;;;;8.17;4.57;;;9.00;99.90;;;;;;5089407;28;20172;-64
2021/10/24 08:04:48;;;;;;;8.87;5.30;;;9.10;99.90;;;;;;5089747;28;20184;-64
2021/10/24 08:07:14;;;;;;;10.40;4.90;;;9.20;99.90;;;;;;5089531;28;20598;-64
2021/10/24 08:09:40;;;;;;;7.37;5.37;;;9.40;99.90;;;;;;5089867;28;20165;-64
2021/10/24 08:12:07;;;;;;;8.10;4.93;;;9.40;99.90;;;;;;5088938;28;20211;-64
2021/10/24 08:14:33;;;;;;;11.20;5.77;;;9.40;99.90;;;;;;5089180;28;20172;-64
2021/10/24 08:16:59;;;;;;;5.53;5.03;;;9.60;99.90;;;;;;5089729;28;20190;-64
2021/10/24 08:19:26;;;;;;;8.07;4.70;;;9.60;99.90;;;;;;5089205;28;20656;-64
2021/10/24 08:21:51;;;;;;;6.60;4.80;;;9.50;99.90;;;;;;5089075;28;20172;-64
2021/10/24 08:24:18;;;;;;;9.80;4.90;;;9.60;99.90;;;;;;5089114;28;20194;-64
2021/10/24 08:26:44;;;;;;;15.27;5.40;;;9.70;99.90;;;;;;5089352;28;20156;-64
2021/10/24 08:29:10;;;;;;;7.57;5.30;;;9.70;99.90;;;;;;5088855;28;20176;-65
2021/10/24 08:31:36;;;;;;;5.67;4.87;;;9.70;99.90;;;;;;5088813;28;20172;-64
2021/10/24 08:34:02;;;;;;;7.23;5.27;;;9.80;99.90;;;;;;5088995;28;20164;-64
2021/10/24 08:36:28;;;;;;;9.63;5.53;;;9.90;99.90;;;;;;5088908;28;20167;-64
2021/10/24 08:38:55;;;;;;;10.93;5.20;;;10.00;99.90;;;;;;5089370;28;20191;-64
2021/10/24 08:41:25;;;;;;;9.77;5.10;;;10.00;99.90;;;;;;5087463;28;20198;-64
2021/10/24 08:43:52;;;;;;;11.20;5.03;;;10.00;99.90;;;;;;5088564;28;20676;-64
2021/10/24 08:46:19;;;;;;;10.80;5.90;;;10.10;99.90;;;;;;5089120;28;20163;-64
2021/10/24 08:48:45;;;;;;;9.50;5.70;;;10.10;99.90;;;;;;5088799;28;20160;-64
2021/10/24 08:51:11;;;;;;;6.90;5.20;;;10.20;99.90;;;;;;5088792;28;20487;-64
2021/10/24 08:53:42;;;;;;;10.93;5.60;;;10.30;99.90;;;;;;5088706;28;20213;-64
2021/10/24 08:56:21;;;;;;;8.83;5.67;;;10.40;99.90;;;;;;5087648;28;20152;-64
2021/10/24 08:58:47;;;;;;;6.00;4.60;;;10.50;99.90;;;;;;5088492;28;20176;-64
2021/10/24 09:01:14;;;;;;;15.07;4.97;;;10.60;99.90;;;;;;5087652;28;20160;-64
2021/10/24 09:04:11;;;;;;;8.83;4.73;;;10.70;99.90;;;;;;5088532;28;20163;-64
2021/10/24 09:06:56;;;;;;;8.03;4.13;;;11.00;99.90;;;;;;5086993;28;20156;-64
2021/10/24 09:09:27;;;;;;;8.43;4.63;;;11.10;99.90;;;;;;5088350;28;20167;-64
2021/10/24 09:11:54;;;;;;;7.53;4.53;;;11.10;99.90;;;;;;5087891;28;20343;-64
2021/10/24 09:14:49;;;;;;;5.77;4.10;;;11.10;99.90;;;;;;5087665;28;20199;-64
2021/10/24 09:17:32;;;;;;;6.27;4.53;;;11.10;99.90;;;;;;5088280;28;20144;-65
2021/10/24 09:20:04;;;;;;;6.37;4.70;;;11.20;99.90;;;;;;5087968;28;20232;-64
2021/10/24 09:22:39;;;;;;;6.30;4.67;;;11.60;99.90;;;;;;5087915;28;20160;-64
2021/10/24 09:25:19;;;;;;;8.47;5.00;;;11.60;99.90;;;;;;5088325;28;20201;-64
2021/10/24 09:27:52;;;;;;;9.50;4.53;;;11.60;99.90;;;;;;5087727;28;20247;-64
2021/10/24 09:30:25;;;;;;;6.67;4.60;;;11.70;99.90;;;;;;5087984;28;20160;-64
2021/10/24 09:33:02;;;;;;;6.10;4.23;;;11.70;99.90;;;;;;5086511;28;20180;-64
2021/10/24 09:35:32;;;;;;;8.93;4.67;;;11.70;99.90;;;;;;5088110;28;20225;-64
2021/10/24 09:38:12;;;;;;;7.90;4.13;;;11.80;99.90;;;;;;5088015;28;20167;-65
2021/10/24 09:40:48;;;;;;;5.33;3.80;;;11.80;99.90;;;;;;5087958;28;20595;-64
2021/10/24 09:43:22;;;;;;;7.57;4.47;;;11.80;99.90;;;;;;5087419;28;20168;-64
2021/10/24 09:46:10;;;;;;;7.07;4.47;;;11.70;99.90;;;;;;5087878;28;20183;-64
2021/10/24 09:48:37;;;;;;;6.03;4.83;;;11.80;99.90;;;;;;5086316;28;20164;-64
2021/10/24 09:51:11;;;;;;;9.60;4.00;;;12.00;99.90;;;;;;5087758;28;20507;-64
2021/10/24 09:53:41;;;;;;;7.40;4.27;;;12.10;99.90;;;;;;5087701;28;20160;-64
2021/10/24 09:56:17;;;;;;;8.73;4.03;;;12.00;99.90;;;;;;5087627;28;20160;-64
2021/10/24 09:58:48;;;;;;;7.73;4.53;;;12.00;99.90;;;;;;5087214;28;20193;-64
2021/10/24 10:01:17;;;;;;;13.00;4.57;;;12.10;99.90;;;;;;5087423;28;20145;-64
2021/10/24 10:03:43;;;;;;;8.30;4.70;;;12.20;99.90;;;;;;5086416;28;20227;-64
2021/10/24 10:06:09;;;;;;;5.90;4.50;;;12.20;99.90;;;;;;5087333;28;20160;-64
2021/10/24 10:08:39;;;;;;;8.37;5.13;;;12.40;99.90;;;;;;5086817;28;20421;-64
2021/10/24 10:11:24;;;;;;;10.80;5.07;;;12.70;99.90;;;;;;5086774;28;20280;-64
2021/10/24 10:14:01;;;;;;;11.00;4.70;;;12.70;99.90;;;;;;5086475;28;20172;-64
2021/10/24 10:16:37;;;;;;;6.07;4.05;;;12.80;99.90;;;;;;5087351;28;20175;-64
2021/10/24 10:19:05;;;;;;;8.32;4.65;;;12.90;99.90;;;;;;5086623;28;20713;-64
2021/10/24 10:21:36;;;;;;;11.20;4.30;;;13.00;99.90;;;;;;5086945;28;20164;-64
2021/10/24 10:24:10;;;;;;;4.22;3.75;;;13.10;99.90;;;;;;5087037;28;20533;-65
2021/10/24 10:26:42;;;;;;;5.85;4.30;;;13.20;99.90;;;;;;5086880;28;20222;-64
2021/10/24 10:29:10;;;;;;;7.65;4.55;;;13.20;99.90;;;;;;5086422;28;20228;-64
2021/10/24 10:31:37;;;;;;;5.65;3.85;;;13.30;99.90;;;;;;5086929;28;20622;-64
2021/10/24 10:34:10;;;;;;;7.30;4.13;;;13.30;99.90;;;;;;5086629;28;20207;-65
2021/10/24 10:36:46;;;;;;;6.50;4.63;;;13.40;99.90;;;;;;5086411;28;20155;-64
2021/10/24 10:39:31;;;;;;;11.35;4.60;;;13.40;99.90;;;;;;5086345;28;20246;-64
2021/10/24 10:42:04;;;;;;;6.60;3.65;;;13.50;99.90;;;;;;5086456;28;20717;-64
2021/10/24 10:44:32;;;;;;;6.05;3.97;;;13.60;99.90;;;;;;5086192;28;20192;-64
2021/10/24 10:46:57;;;;;;;4.28;3.65;;;13.70;99.90;;;;;;5086552;28;20167;-64
2021/10/24 10:49:26;;;;;;;6.85;3.88;;;13.70;99.90;;;;;;5086472;28;20168;-65
2021/10/24 10:51:54;;;;;;;6.03;3.20;;;13.80;99.90;;;;;;5086233;28;20171;-65
2021/10/24 10:54:20;;;;;;;4.80;3.63;;;13.90;99.90;;;;;;5086450;28;20164;-65
2021/10/24 10:56:46;;;;;;;7.80;3.50;;;14.10;99.90;;;;;;5086411;28;20202;-65
2021/10/24 10:59:34;;;;;;;8.10;3.55;;;14.30;99.90;;;;;;5086105;28;20183;-65
2021/10/24 11:02:22;;;;;;;5.45;3.70;;;14.50;99.90;;;;;;5086052;28;20206;-65
2021/10/24 11:04:51;;;;;;;4.85;3.75;;;14.60;99.90;;;;;;5086089;28;20631;-65
2021/10/24 11:07:41;;;;;;;6.63;3.20;;;14.70;99.90;;;;;;5085115;28;20164;-65
2021/10/24 11:10:09;;;;;;;5.53;3.10;;;14.80;99.90;;;;;;5086384;28;20154;-65
2021/10/24 11:12:38;;;;;;;4.63;3.30;;;14.70;99.90;;;;;;5085382;28;20207;-65
2021/10/24 11:15:13;;;;;;;3.35;2.80;;;14.70;99.90;;;;;;5086451;28;20172;-65
2021/10/24 11:17:46;;;;;;;3.53;2.63;;;14.70;99.90;;;;;;5085066;28;20175;-65
2021/10/24 11:20:44;;;;;;;6.40;3.38;;;14.70;99.90;;;;;;5086287;28;20622;-65
2021/10/24 11:23:12;;;;;;;5.47;3.10;;;14.60;99.90;;;;;;5085277;28;20180;-65
2021/10/24 11:25:39;;;;;;;4.78;3.03;;;14.70;99.90;;;;;;5084440;28;20188;-65
2021/10/24 11:28:12;;;;;;;5.45;2.80;;;14.70;99.90;;;;;;5085859;28;20175;-65
2021/10/24 11:30:39;;;;;;;4.32;2.85;;;14.90;99.90;;;;;;5086144;28;20144;-65
2021/10/24 11:33:06;;;;;;;5.72;3.75;;;14.90;99.90;;;;;;5085509;28;20195;-65
2021/10/24 11:35:34;;;;;;;4.13;2.83;;;15.00;99.90;;;;;;5086079;28;20171;-65
2021/10/24 11:38:06;;;;;;;6.65;3.63;;;15.00;99.90;;;;;;5086043;28;20633;-65
2021/10/24 11:40:35;;;;;;;4.78;3.20;;;15.20;99.90;;;;;;5086216;28;20152;-65
2021/10/24 11:43:20;;;;;;;7.18;3.75;;;15.30;99.90;;;;;;5085313;28;20641;-65
2021/10/24 11:45:50;;;;;;;8.30;3.67;;;15.30;99.90;;;;;;5085875;28;20580;-65
2021/10/24 11:48:19;;;;;;;3.92;3.20;;;15.40;99.90;;;;;;5085942;28;20167;-65
2021/10/24 11:50:49;;;;;;;3.30;2.78;;;15.40;99.90;;;;;;5086131;28;20167;-65
2021/10/24 11:53:19;;;;;;;4.25;3.03;;;15.60;99.90;;;;;;5085676;28;20221;-65
2021/10/24 11:55:47;;;;;;;5.00;3.33;;;15.80;99.90;;;;;;5086038;28;20247;-65
2021/10/24 11:58:51;;;;;;;6.75;3.42;;;15.70;99.90;;;;;;5084376;28;20179;-65
2021/10/24 12:01:19;;;;;;;5.78;3.42;;;15.80;99.90;;;;;;5085561;28;20198;-65
2021/10/24 12:03:59;;;;;;;7.28;3.42;;;15.90;99.90;;;;;;5085813;28;20163;-65
2021/10/24 12:06:58;;;;;;;7.45;3.33;;;15.80;99.90;;;;;;5086007;28;20148;-65
2021/10/24 12:09:29;;;;;;;9.75;3.70;;;15.80;99.90;;;;;;5085776;28;20167;-65
2021/10/24 12:12:05;;;;;;;4.10;2.90;;;15.90;99.90;;;;;;5085251;28;20223;-65
2021/10/24 12:14:31;;;;;;;4.43;3.15;;;16.00;99.90;;;;;;5085640;28;20171;-65
2021/10/24 12:16:57;;;;;;;4.38;3.08;;;16.00;99.90;;;;;;5085787;28;20171;-65
2021/10/24 12:19:30;;;;;;;7.38;3.33;;;16.20;99.90;;;;;;5085754;28;20164;-65
2021/10/24 12:22:07;;;;;;;5.88;3.20;;;16.40;99.90;;;;;;5085704;28;20222;-65
2021/10/24 12:24:48;;;;;;;4.75;3.03;;;16.50;99.90;;;;;;5085615;28;20199;-65
2021/10/24 12:27:32;;;;;;;4.20;3.00;;;16.60;99.90;;;;;;5085733;28;20166;-64
2021/10/24 12:30:08;;;;;;;4.38;3.35;;;16.70;99.90;;;;;;5084033;28;20190;-64
2021/10/24 12:32:52;;;;;;;3.55;3.08;;;16.90;99.90;;;;;;5085249;28;20176;-64
2021/10/24 12:35:18;;;;;;;4.97;3.13;;;17.10;99.90;;;;;;5086502;28;20168;-64
2021/10/24 12:38:04;;;;;;;5.40;2.65;;;17.30;99.90;;;;;;5089253;28;20168;-64
2021/10/24 12:40:33;;;;;;;3.80;2.75;;;17.40;99.90;;;;;;5089388;28;20187;-64
2021/10/24 12:43:10;;;;;;;2.80;2.47;;;17.40;99.90;;;;;;5088695;28;20241;-64
2021/10/24 12:45:53;;;;;;;6.65;3.10;;;17.20;99.90;;;;;;5088749;28;20261;-64
2021/10/24 12:48:24;;;;;;;7.30;3.13;;;17.30;99.90;;;;;;5089057;28;20188;-64
2021/10/24 12:50:51;;;;;;;3.25;2.65;;;17.20;99.90;;;;;;5088976;28;20242;-65
2021/10/24 12:53:20;;;;;;;7.88;3.13;;;17.00;99.90;;;;;;5088749;28;20221;-65